createdAt,value
2018-04-15T00:01:53.609Z,69.40
2018-04-15T00:04:26.594Z,69.60
2018-04-15T00:06:59.080Z,70.00
2018-04-15T00:09:31.029Z,70.40
2018-04-15T00:12:04.183Z,70.40
2018-04-15T00:14:35.799Z,70.40
2018-04-15T00:17:08.204Z,70.00
2018-04-15T00:19:41.127Z,69.50
2018-04-15T00:22:13.822Z,69.10
2018-04-15T00:24:46.114Z,69.50
2018-04-15T00:27:20.500Z,70.00
2018-04-15T00:29:53.525Z,70.50
2018-04-15T00:32:26.209Z,70.40
2018-04-15T00:34:59.892Z,70.60
2018-04-15T00:37:32.605Z,70.20
2018-04-15T00:40:06.069Z,69.80
2018-04-15T00:42:37.825Z,70.30
2018-04-15T00:45:10.975Z,70.40
2018-04-15T00:47:44.507Z,70.30
2018-04-15T00:50:17.293Z,70.30
2018-04-15T00:52:49.947Z,70.00
2018-04-15T00:55:22.019Z,70.40
2018-04-15T00:57:55.291Z,70.40
2018-04-15T01:00:30.828Z,70.30
2018-04-15T01:03:03.617Z,69.50
2018-04-15T01:05:38.459Z,69.70
2018-04-15T01:08:12.606Z,70.10
2018-04-15T01:10:47.484Z,70.30
2018-04-15T01:13:20.014Z,70.30
2018-04-15T01:15:52.331Z,71.10
2018-04-15T01:18:24.500Z,71.10
2018-04-15T01:20:56.488Z,70.80
2018-04-15T01:23:28.252Z,70.90
2018-04-15T01:26:01.967Z,70.40
2018-04-15T01:28:34.679Z,70.10
2018-04-15T01:31:08.077Z,70.00
2018-04-15T01:33:41.407Z,69.60
2018-04-15T01:36:15.352Z,69.70
2018-04-15T01:38:48.089Z,70.60
2018-04-15T01:41:21.919Z,70.60
2018-04-15T01:43:55.501Z,71.40
2018-04-15T01:46:29.248Z,71.60
2018-04-15T01:49:01.776Z,71.60
2018-04-15T01:51:33.855Z,72.10
2018-04-15T01:54:06.063Z,72.20
2018-04-15T01:56:40.756Z,73.40
2018-04-15T01:59:14.939Z,72.50
2018-04-15T02:01:47.639Z,72.60
2018-04-15T02:04:19.984Z,71.50
2018-04-15T02:06:52.246Z,70.10
2018-04-15T02:09:24.382Z,69.50
2018-04-15T02:11:57.791Z,69.90
2018-04-15T02:14:30.130Z,69.90
2018-04-15T02:17:02.021Z,69.50
2018-04-15T02:19:34.371Z,69.20
2018-04-15T02:22:06.051Z,69.30
2018-04-15T02:24:38.736Z,69.50
2018-04-15T02:27:12.571Z,69.70
2018-04-15T02:29:44.719Z,70.10
2018-04-15T02:32:16.707Z,69.10
2018-04-15T02:34:50.598Z,69.10
2018-04-15T02:37:22.703Z,69.20
2018-04-15T02:39:54.604Z,68.90
2018-04-15T02:42:26.347Z,68.90
2018-04-15T02:44:58.654Z,69.20
2018-04-15T02:47:30.786Z,69.10
2018-04-15T02:50:02.564Z,69.20
2018-04-15T02:52:36.103Z,68.70
2018-04-15T02:55:08.309Z,68.70
2018-04-15T02:57:40.104Z,68.50
2018-04-15T03:00:11.553Z,68.50
2018-04-15T03:02:44.561Z,68.60
2018-04-15T03:05:18.122Z,69.50
2018-04-15T03:07:51.228Z,69.70
2018-04-15T03:10:24.393Z,70.30
2018-04-15T03:12:57.446Z,70.10
2018-04-15T03:15:29.342Z,71.00
2018-04-15T03:18:03.083Z,69.70
2018-04-15T03:20:34.222Z,69.40
2018-04-15T03:23:07.334Z,69.40
2018-04-15T03:25:38.963Z,69.40
2018-04-15T03:28:12.257Z,70.10
2018-04-15T03:30:44.326Z,69.80
2018-04-15T03:33:17.935Z,71.40
2018-04-15T03:35:51.520Z,71.90
2018-04-15T03:38:24.099Z,71.70
2018-04-15T03:40:56.065Z,71.00
2018-04-15T03:43:28.455Z,71.80
2018-04-15T03:45:59.860Z,71.90
2018-04-15T03:48:32.343Z,71.50
2018-04-15T03:51:03.644Z,71.10
2018-04-15T03:53:36.019Z,71.20
2018-04-15T03:56:07.235Z,71.70
2018-04-15T03:58:38.602Z,71.30
2018-04-15T04:01:10.131Z,71.00
2018-04-15T04:03:42.714Z,71.20
2018-04-15T04:06:14.590Z,71.10
2018-04-15T04:08:46.540Z,71.30
2018-04-15T04:11:18.906Z,71.50
2018-04-15T04:13:50.707Z,72.40
2018-04-15T04:16:24.429Z,72.30
2018-04-15T04:19:08.111Z,72.80
2018-04-15T04:21:52.906Z,72.80
2018-04-15T04:24:37.800Z,72.30
2018-04-15T04:27:11.926Z,72.90
2018-04-15T04:29:44.205Z,72.50
2018-04-15T04:32:16.928Z,71.10
2018-04-15T04:34:49.323Z,71.40
2018-04-15T04:37:21.734Z,70.20
2018-04-15T04:39:54.738Z,70.10
2018-04-15T04:42:28.641Z,70.60
2018-04-15T04:45:00.624Z,69.90
2018-04-15T04:47:33.970Z,69.90
2018-04-15T04:50:07.167Z,70.10
2018-04-15T04:52:39.531Z,69.80
2018-04-15T04:55:13.776Z,69.30
2018-04-15T04:57:47.802Z,69.40
2018-04-15T05:00:19.478Z,68.80
2018-04-15T05:02:52.256Z,68.80
2018-04-15T05:05:23.611Z,69.10
2018-04-15T05:07:58.408Z,68.90
2018-04-15T05:10:31.363Z,69.30
2018-04-15T05:13:04.118Z,69.10
2018-04-15T05:15:38.805Z,68.90
2018-04-15T05:18:11.951Z,67.90
2018-04-15T05:20:43.949Z,68.20
2018-04-15T05:23:16.738Z,67.10
2018-04-15T05:25:48.718Z,66.60
2018-04-15T05:28:21.359Z,66.40
2018-04-15T05:30:53.820Z,65.90
2018-04-15T05:33:26.167Z,66.30
2018-04-15T05:35:57.850Z,66.30
2018-04-15T05:38:29.965Z,67.10
2018-04-15T05:41:03.307Z,67.00
2018-04-15T05:43:36.959Z,66.20
2018-04-15T05:46:10.153Z,63.60
2018-04-15T05:48:46.164Z,61.20
2018-04-15T05:51:18.725Z,61.20
2018-04-15T05:53:50.169Z,60.80
2018-04-15T05:56:22.136Z,60.80
2018-04-15T05:58:54.957Z,60.70
2018-04-15T06:01:27.805Z,60.60
2018-04-15T06:03:59.624Z,59.60
2018-04-15T06:06:33.187Z,58.50
2018-04-15T06:09:07.883Z,58.40
2018-04-15T06:11:42.683Z,55.70
2018-04-15T06:14:14.759Z,55.60
2018-04-15T06:16:47.427Z,54.80
2018-04-15T06:19:19.936Z,53.40
2018-04-15T06:21:52.777Z,53.10
2018-04-15T06:24:28.541Z,53.60
2018-04-15T06:27:00.572Z,54.20
2018-04-15T06:29:33.165Z,53.90
2018-04-15T06:32:05.552Z,53.90
2018-04-15T06:34:37.601Z,53.70
2018-04-15T06:37:12.103Z,53.10
2018-04-15T06:39:44.055Z,53.10
2018-04-15T06:42:16.394Z,53.20
2018-04-15T06:44:48.850Z,53.40
2018-04-15T06:47:22.564Z,52.60
2018-04-15T06:49:57.018Z,52.40
2018-04-15T06:52:29.035Z,52.30
2018-04-15T06:55:01.426Z,51.70
2018-04-15T06:57:33.290Z,51.60
2018-04-15T07:00:05.903Z,51.60
2018-04-15T07:02:38.658Z,52.00
2018-04-15T07:05:11.279Z,52.10
2018-04-15T07:07:44.997Z,52.00
2018-04-15T07:10:16.067Z,51.90
2018-04-15T07:12:49.013Z,51.60
2018-04-15T07:15:20.783Z,51.60
2018-04-15T07:17:53.567Z,50.90
2018-04-15T07:20:25.104Z,50.10
2018-04-15T07:22:58.083Z,48.60
2018-04-15T07:25:30.556Z,46.50
2018-04-15T07:28:03.450Z,44.10
2018-04-15T07:30:36.731Z,44.70
2018-04-15T07:33:08.191Z,43.30
2018-04-15T07:35:41.464Z,42.10
2018-04-15T07:38:14.268Z,41.10
2018-04-15T07:40:49.917Z,41.40
2018-04-15T07:43:22.424Z,40.90
2018-04-15T07:45:57.744Z,40.50
2018-04-15T07:48:30.371Z,39.50
2018-04-15T07:51:02.247Z,39.00
2018-04-15T07:53:34.131Z,39.30
2018-04-15T07:56:07.270Z,39.50
2018-04-15T07:58:39.881Z,39.00
2018-04-15T08:01:12.400Z,38.00
2018-04-15T08:03:44.538Z,38.90
2018-04-15T08:06:17.176Z,38.20
2018-04-15T08:08:50.377Z,38.30
2018-04-15T08:11:21.575Z,39.10
2018-04-15T08:13:56.637Z,39.30
2018-04-15T08:16:29.073Z,40.50
2018-04-15T08:19:04.368Z,39.90
2018-04-15T08:21:35.801Z,39.60
2018-04-15T08:24:07.019Z,39.90
2018-04-15T08:26:38.840Z,40.70
2018-04-15T08:29:13.530Z,41.40
2018-04-15T08:31:47.167Z,41.30
2018-04-15T08:34:19.965Z,41.70
2018-04-15T08:36:51.318Z,42.90
2018-04-15T08:39:24.815Z,41.90
2018-04-15T08:41:57.306Z,41.80
2018-04-15T08:44:29.449Z,42.20
2018-04-15T08:47:00.759Z,42.90
2018-04-15T08:49:32.440Z,42.60
2018-04-15T08:52:04.239Z,43.50
2018-04-15T08:54:37.090Z,43.70
2018-04-15T08:57:08.683Z,44.10
2018-04-15T08:59:41.528Z,44.80
2018-04-15T09:02:14.963Z,43.20
2018-04-15T09:04:46.494Z,42.40
2018-04-15T09:07:18.208Z,41.20
2018-04-15T09:09:50.035Z,41.20
2018-04-15T09:12:22.611Z,39.60
2018-04-15T09:14:54.795Z,36.50
2018-04-15T09:17:26.374Z,35.60
2018-04-15T09:19:58.585Z,34.80
2018-04-15T09:22:31.707Z,34.90
2018-04-15T09:25:04.807Z,34.20
2018-04-15T09:27:37.849Z,34.80
2018-04-15T09:30:11.232Z,36.90
2018-04-15T09:32:44.061Z,36.70
2018-04-15T09:35:17.940Z,37.40
2018-04-15T09:37:50.445Z,37.00
2018-04-15T09:40:22.930Z,36.60
2018-04-15T09:42:56.219Z,36.30
2018-04-15T09:45:29.687Z,35.00
2018-04-15T09:48:02.555Z,35.00
2018-04-15T09:50:33.821Z,35.70
2018-04-15T09:53:05.483Z,36.10
2018-04-15T09:55:38.541Z,36.40
2018-04-15T09:58:10.589Z,35.60
2018-04-15T10:00:42.283Z,35.30
2018-04-15T10:03:16.457Z,34.40
2018-04-15T10:05:49.411Z,34.90
2018-04-15T10:08:21.893Z,37.10
2018-04-15T10:10:54.520Z,35.30
2018-04-15T10:13:29.470Z,35.20
2018-04-15T10:16:01.383Z,36.30
2018-04-15T10:18:34.402Z,37.10
2018-04-15T10:21:08.187Z,36.20
2018-04-15T10:23:40.268Z,35.30
2018-04-15T10:26:12.078Z,35.40
2018-04-15T10:28:43.517Z,34.50
2018-04-15T10:31:19.479Z,34.60
2018-04-15T10:33:56.665Z,34.40
2018-04-15T10:36:33.290Z,34.20
2018-04-15T10:39:09.671Z,34.20
2018-04-15T10:41:44.667Z,34.30
2018-04-15T10:44:21.499Z,33.20
2018-04-15T10:46:58.436Z,33.00
2018-04-15T10:49:39.116Z,33.70
2018-04-15T10:52:14.549Z,34.50
2018-04-15T10:54:50.756Z,33.40
2018-04-15T10:57:27.110Z,30.90
2018-04-15T11:00:05.247Z,29.40
2018-04-15T11:02:42.646Z,29.70
2018-04-15T11:05:20.547Z,29.70
2018-04-15T11:07:55.606Z,28.30
2018-04-15T11:10:31.300Z,29.40
2018-04-15T11:13:07.990Z,28.80
2018-04-15T11:15:44.267Z,28.60
2018-04-15T11:18:21.488Z,29.10
2018-04-15T11:20:56.850Z,27.70
2018-04-15T11:23:33.543Z,29.30
2018-04-15T11:26:09.190Z,29.40
2018-04-15T11:28:45.035Z,31.40
2018-04-15T11:31:22.090Z,32.30
2018-04-15T11:33:59.331Z,31.70
2018-04-15T11:36:37.904Z,30.60
2018-04-15T11:39:13.679Z,30.90
2018-04-15T11:41:50.861Z,32.20
2018-04-15T11:44:26.726Z,34.30
2018-04-15T11:47:02.269Z,34.50
2018-04-15T11:49:38.859Z,35.10
2018-04-15T11:52:14.986Z,35.10
2018-04-15T11:54:50.745Z,35.40
2018-04-15T11:57:27.114Z,35.10
2018-04-15T12:00:02.582Z,35.40
2018-04-15T12:02:39.685Z,35.40
2018-04-15T12:05:17.317Z,35.50
2018-04-15T12:07:53.803Z,36.30
2018-04-15T12:10:30.678Z,37.80
2018-04-15T12:13:07.498Z,37.70
2018-04-15T12:15:43.877Z,37.50
2018-04-15T12:18:20.560Z,38.70
2018-04-15T12:20:56.672Z,38.70
2018-04-15T12:23:32.297Z,39.10
2018-04-15T12:26:08.267Z,38.60
2018-04-15T12:28:44.586Z,39.00
2018-04-15T12:31:21.917Z,38.00
2018-04-15T12:33:57.836Z,37.90
2018-04-15T12:36:34.563Z,38.50
2018-04-15T12:39:11.705Z,35.60
2018-04-15T12:41:48.392Z,35.40
2018-04-15T12:44:25.094Z,32.90
2018-04-15T12:47:02.106Z,31.20
2018-04-15T12:49:38.655Z,30.40
2018-04-15T12:52:14.205Z,29.70
2018-04-15T12:54:49.667Z,29.60
2018-04-15T12:57:25.665Z,29.00
2018-04-15T13:00:03.852Z,28.60
2018-04-15T13:02:41.351Z,28.30
2018-04-15T13:05:18.919Z,29.20
2018-04-15T13:07:55.270Z,28.60
2018-04-15T13:10:32.235Z,29.90
2018-04-15T13:13:07.500Z,28.10
2018-04-15T13:15:43.670Z,27.30
2018-04-15T13:18:21.513Z,27.30
2018-04-15T13:20:58.716Z,27.30
2018-04-15T13:23:34.898Z,26.40
2018-04-15T13:26:12.414Z,26.80
2018-04-15T13:28:48.996Z,27.20
2018-04-15T13:31:25.376Z,27.50
2018-04-15T13:34:02.311Z,27.30
2018-04-15T13:36:39.119Z,27.20
2018-04-15T13:39:16.282Z,27.20
2018-04-15T13:41:54.162Z,28.30
2018-04-15T13:44:31.328Z,27.40
2018-04-15T13:47:08.917Z,27.30
2018-04-15T13:49:45.495Z,27.40
2018-04-15T13:52:21.419Z,28.40
2018-04-15T13:54:57.054Z,27.40
2018-04-15T13:57:33.197Z,28.10
2018-04-15T14:00:08.699Z,28.00
2018-04-15T14:02:44.799Z,29.40
2018-04-15T14:05:21.611Z,28.60
2018-04-15T14:07:58.633Z,27.90
2018-04-15T14:10:36.190Z,28.30
2018-04-15T14:13:11.987Z,28.50
2018-04-15T14:15:49.025Z,28.80
2018-04-15T14:18:26.243Z,29.80
2018-04-15T14:21:04.448Z,30.90
2018-04-15T14:23:40.825Z,32.30
2018-04-15T14:26:16.029Z,32.90
2018-04-15T14:28:51.618Z,32.70
2018-04-15T14:31:29.570Z,34.50
2018-04-15T14:34:07.217Z,33.00
2018-04-15T14:36:43.253Z,31.30
2018-04-15T14:39:20.000Z,31.00
2018-04-15T14:41:55.645Z,32.00
2018-04-15T14:44:31.513Z,32.90
2018-04-15T14:47:06.869Z,32.30
2018-04-15T14:49:41.970Z,33.60
2018-04-15T14:52:17.082Z,34.60
2018-04-15T14:54:53.532Z,35.60
2018-04-15T14:57:29.029Z,35.60
2018-04-15T15:00:05.905Z,36.40
2018-04-15T15:02:41.221Z,35.10
2018-04-15T15:05:16.488Z,36.20
2018-04-15T15:07:56.822Z,36.30
2018-04-15T15:10:32.634Z,36.20
2018-04-15T15:13:08.390Z,35.70
2018-04-15T15:15:43.286Z,36.40
2018-04-15T15:18:19.895Z,35.90
2018-04-15T15:20:56.504Z,36.10
2018-04-15T15:23:31.881Z,37.30
2018-04-15T15:26:08.683Z,37.60
2018-04-15T15:28:44.759Z,37.60
2018-04-15T15:31:23.519Z,37.50
2018-04-15T15:34:03.690Z,38.10
2018-04-15T15:36:41.504Z,38.50
2018-04-15T15:39:17.284Z,38.50
2018-04-15T15:41:52.914Z,38.60
2018-04-15T15:44:28.395Z,39.00
2018-04-15T15:47:03.737Z,39.20
2018-04-15T15:49:45.088Z,38.90
2018-04-15T15:52:20.246Z,39.30
2018-04-15T15:54:55.698Z,39.60
2018-04-15T15:57:31.163Z,39.30
2018-04-15T16:00:08.895Z,39.20
2018-04-15T16:02:44.418Z,39.30
2018-04-15T16:05:20.075Z,39.90
2018-04-15T16:07:55.353Z,40.30
2018-04-15T16:10:31.867Z,40.60
2018-04-15T16:13:07.313Z,40.60
2018-04-15T16:15:43.327Z,41.50
2018-04-15T16:18:19.277Z,41.80
2018-04-15T16:20:54.647Z,42.40
2018-04-15T16:23:42.654Z,43.10
2018-04-15T16:26:18.779Z,43.10
2018-04-15T16:28:55.494Z,43.40
2018-04-15T16:31:31.623Z,43.70
2018-04-15T16:34:07.050Z,43.90
2018-04-15T16:36:42.377Z,44.00
2018-04-15T16:39:18.231Z,44.00
2018-04-15T16:41:54.614Z,43.50
2018-04-15T16:44:31.555Z,44.30
2018-04-15T16:47:06.787Z,45.40
2018-04-15T16:49:41.318Z,46.60
2018-04-15T16:52:17.369Z,46.60
2018-04-15T16:54:53.649Z,46.20
2018-04-15T16:57:29.088Z,47.00
2018-04-15T17:00:03.906Z,46.70
2018-04-15T17:02:40.486Z,46.00
2018-04-15T17:05:16.348Z,46.60
2018-04-15T17:07:52.266Z,46.40
2018-04-15T17:10:32.131Z,45.10
2018-04-15T17:13:12.130Z,46.90
2018-04-15T17:15:51.772Z,47.00
2018-04-15T17:18:31.554Z,49.30
2018-04-15T17:21:11.567Z,48.20
2018-04-15T17:23:51.416Z,50.10
2018-04-15T17:26:31.439Z,49.00
2018-04-15T17:29:11.356Z,46.60
2018-04-15T17:31:51.270Z,46.30
2018-04-15T17:34:31.123Z,46.00
2018-04-15T17:37:11.042Z,46.00
2018-04-15T17:39:50.654Z,46.30
2018-04-15T17:42:31.135Z,48.90
2018-04-15T17:45:11.081Z,49.20
2018-04-15T17:47:51.098Z,48.10
2018-04-15T17:50:31.375Z,49.50
2018-04-15T17:53:12.095Z,51.20
2018-04-15T17:55:52.623Z,52.00
2018-04-15T17:58:32.811Z,52.80
2018-04-15T18:01:14.258Z,52.40
2018-04-15T18:03:53.863Z,52.30
2018-04-15T18:06:33.923Z,53.70
2018-04-15T18:09:15.517Z,53.00
2018-04-15T18:11:55.591Z,55.50
2018-04-15T18:14:35.481Z,56.50
2018-04-15T18:17:15.468Z,55.40
2018-04-15T18:19:56.467Z,57.30
2018-04-15T18:22:38.264Z,56.90
2018-04-15T18:25:13.035Z,56.90
2018-04-15T18:27:53.087Z,57.20
2018-04-15T18:30:32.685Z,58.10
2018-04-15T18:33:12.982Z,58.50
2018-04-15T18:35:53.624Z,58.70
2018-04-15T18:38:33.470Z,60.50
2018-04-15T18:41:13.809Z,59.80
2018-04-15T18:43:53.733Z,59.90
2018-04-15T18:46:34.713Z,60.20
2018-04-15T18:49:15.096Z,60.60
2018-04-15T18:51:55.362Z,61.10
2018-04-15T18:54:35.488Z,61.50
2018-04-15T18:57:15.651Z,61.20
2018-04-15T18:59:55.910Z,61.50
2018-04-15T19:02:35.794Z,61.30
2018-04-15T19:05:16.052Z,61.30
2018-04-15T19:07:56.963Z,62.50
2018-04-15T19:10:37.180Z,62.50
2018-04-15T19:13:17.563Z,63.10
2018-04-15T19:15:58.541Z,61.40
2018-04-15T19:18:38.807Z,61.20
2018-04-15T19:21:18.780Z,60.30
2018-04-15T19:23:59.643Z,60.70
2018-04-15T19:26:39.650Z,60.70
2018-04-15T19:29:20.311Z,62.30
2018-04-15T19:32:01.182Z,63.00
2018-04-15T19:34:42.541Z,62.50
2018-04-15T19:37:23.286Z,62.80
2018-04-15T19:40:04.472Z,63.70
2018-04-15T19:42:44.777Z,64.10
2018-04-15T19:45:25.179Z,64.10
2018-04-15T19:48:04.701Z,64.30
2018-04-15T19:50:44.699Z,64.00
2018-04-15T19:53:25.349Z,64.40
2018-04-15T19:56:00.489Z,64.70
2018-04-15T19:58:37.980Z,64.70
2018-04-15T20:01:13.399Z,64.60
2018-04-15T20:03:49.983Z,64.60
2018-04-15T20:06:28.054Z,64.90
2018-04-15T20:09:04.459Z,64.80
2018-04-15T20:11:42.050Z,63.40
2018-04-15T20:14:17.527Z,63.50
2018-04-15T20:16:53.751Z,63.50
2018-04-15T20:19:29.514Z,64.00
2018-04-15T20:22:05.297Z,63.80
2018-04-15T20:24:42.623Z,64.80
2018-04-15T20:27:18.384Z,65.40
2018-04-15T20:29:54.305Z,65.40
2018-04-15T20:32:29.748Z,65.60
2018-04-15T20:35:05.836Z,66.40
2018-04-15T20:37:43.981Z,65.90
2018-04-15T20:40:21.131Z,66.00
2018-04-15T20:42:57.002Z,65.50
2018-04-15T20:45:32.529Z,65.10
2018-04-15T20:48:09.080Z,65.30
2018-04-15T20:50:46.760Z,66.40
2018-04-15T20:53:22.531Z,66.30
2018-04-15T20:55:58.165Z,66.70
2018-04-15T20:58:33.958Z,66.40
2018-04-15T21:01:09.407Z,64.00
2018-04-15T21:03:45.153Z,65.40
2018-04-15T21:06:23.813Z,65.40
2018-04-15T21:09:00.032Z,65.30
2018-04-15T21:11:35.891Z,66.00
2018-04-15T21:14:12.426Z,66.60
2018-04-15T21:16:48.099Z,64.50
2018-04-15T21:19:24.256Z,64.30
2018-04-15T21:22:00.003Z,64.90
2018-04-15T21:24:37.051Z,62.50
2018-04-15T21:27:14.386Z,62.30
2018-04-15T21:29:49.591Z,63.30
2018-04-15T21:32:25.201Z,64.10
2018-04-15T21:35:01.805Z,64.70
2018-04-15T21:37:38.544Z,64.90
2018-04-15T21:40:14.331Z,63.90
2018-04-15T21:42:49.799Z,63.60
2018-04-15T21:45:25.570Z,63.20
2018-04-15T21:48:02.202Z,61.90
2018-04-15T21:50:38.801Z,61.80
2018-04-15T21:53:14.917Z,62.00
2018-04-15T21:55:50.377Z,63.10
2018-04-15T21:58:26.830Z,64.00
2018-04-15T22:01:02.416Z,64.80
2018-04-15T22:03:37.890Z,66.10
2018-04-15T22:06:13.984Z,65.70
2018-04-15T22:08:49.481Z,65.10
2018-04-15T22:11:36.162Z,65.60
2018-04-15T22:14:13.756Z,66.70
2018-04-15T22:16:50.458Z,65.70
2018-04-15T22:19:26.195Z,64.80
2018-04-15T22:22:01.943Z,64.60
2018-04-15T22:24:37.747Z,64.70
2018-04-15T22:27:13.218Z,66.50
2018-04-15T22:29:49.582Z,64.60
2018-04-15T22:32:25.843Z,64.10
2018-04-15T22:35:01.629Z,63.50
2018-04-15T22:37:37.963Z,62.50
2018-04-15T22:40:13.409Z,61.80
2018-04-15T22:42:50.381Z,61.00
2018-04-15T22:45:26.679Z,60.60
2018-04-15T22:48:05.338Z,61.20
2018-04-15T22:50:42.568Z,61.80
2018-04-15T22:53:19.536Z,62.00
2018-04-15T22:55:55.599Z,62.90
2018-04-15T22:58:38.252Z,64.40
2018-04-15T23:01:13.563Z,64.50
2018-04-15T23:03:49.053Z,64.10
2018-04-15T23:06:25.099Z,62.40
2018-04-15T23:09:01.097Z,62.00
2018-04-15T23:11:39.481Z,64.50
2018-04-15T23:14:15.777Z,65.90
2018-04-15T23:16:52.451Z,65.40
2018-04-15T23:19:27.987Z,64.20
2018-04-15T23:22:04.417Z,65.90
2018-04-15T23:24:42.056Z,65.90
2018-04-15T23:27:20.103Z,65.90
2018-04-15T23:29:56.018Z,65.30
2018-04-15T23:32:32.558Z,64.50
2018-04-15T23:35:10.459Z,64.80
2018-04-15T23:37:46.392Z,64.50
2018-04-15T23:40:22.374Z,64.80
2018-04-15T23:42:58.216Z,64.40
2018-04-15T23:45:34.397Z,65.90
2018-04-15T23:48:10.596Z,65.00
2018-04-15T23:50:48.466Z,66.20
2018-04-15T23:53:24.587Z,67.40
2018-04-15T23:56:00.598Z,68.80
2018-04-15T23:58:36.667Z,68.10
